RJAW/IWO METAR and TAF weather

Enter ICAO airport designator
Station Type Date Time Source
RJAW METAR 2019/10/15 03:00 UTC NOAA

RJAW 150300Z 13009KT 100V160 9999 FEW005 SCT010 29/26 Q1013 RMK 1ST005 4CU010 A2993


Station Type Date Time Source
RJAW Decoded METAR 2019/10/15 03:00 UTC NOAA

Iwojima, Japan (RJAW) 24-47N 141-19E 116M
Oct 14, 2019 - 11:00 PM EDT / 2019.10.15 0300 UTC
Wind: from the SE (130 degrees) at 10 MPH (9 KT) (direction variable):0
Visibility: greater than 7 mile(s):0
Sky conditions: partly cloudy
Temperature: 84 F (29 C)
Dew Point: 78 F (26 C)
Relative Humidity: 83%
Pressure (altimeter): 29.91 in. Hg (1013 hPa)
ob: RJAW 150300Z 13009KT 100V160 9999 FEW005 SCT010 29/26 Q1013 RMK 1ST005 4CU010 A2993
cycle: 3

Station Type Date Time Source
RJAW TAF UTC NOAA

Error!

Example: see airport list